createdAt,value
2022-10-24T00:01:14.900Z,17.10
2022-10-24T00:03:41.603Z,17.00
2022-10-24T00:06:09.771Z,17.00
2022-10-24T00:08:37.344Z,17.00
2022-10-24T00:11:12.624Z,16.90
2022-10-24T00:13:42.628Z,16.90
2022-10-24T00:16:09.440Z,16.90
2022-10-24T00:18:36.322Z,16.90
2022-10-24T00:21:03.608Z,16.90
2022-10-24T00:23:30.394Z,16.90
2022-10-24T00:26:01.478Z,16.90
2022-10-24T00:28:28.890Z,16.80
2022-10-24T00:30:55.514Z,16.80
2022-10-24T00:33:22.230Z,16.80
2022-10-24T00:35:49.016Z,16.70
2022-10-24T00:38:15.624Z,16.70
2022-10-24T00:40:45.484Z,16.70
2022-10-24T00:43:20.566Z,16.70
2022-10-24T00:45:55.603Z,16.60
2022-10-24T00:48:31.747Z,16.60
2022-10-24T00:51:03.311Z,16.60
2022-10-24T00:53:35.295Z,16.40
2022-10-24T00:56:05.299Z,16.40
2022-10-24T00:58:34.241Z,16.30
2022-10-24T01:01:01.902Z,16.30
2022-10-24T01:03:28.803Z,16.30
2022-10-24T01:06:10.439Z,16.20
2022-10-24T01:08:46.733Z,16.20
2022-10-24T01:11:19.232Z,16.20
2022-10-24T01:14:30.282Z,16.20
2022-10-24T01:17:10.841Z,16.20
2022-10-24T01:20:28.590Z,16.10
2022-10-24T01:23:22.373Z,16.00
2022-10-24T01:26:09.592Z,15.90
2022-10-24T01:28:53.823Z,15.80
2022-10-24T01:31:39.407Z,15.70
2022-10-24T01:34:17.200Z,15.50
2022-10-24T01:36:56.542Z,15.50
2022-10-24T01:39:29.944Z,15.40
2022-10-24T01:41:58.662Z,15.40
2022-10-24T01:44:31.619Z,15.40
2022-10-24T01:47:11.020Z,15.40
2022-10-24T01:49:41.783Z,15.40
2022-10-24T01:54:45.182Z,15.40
2022-10-24T01:57:14.061Z,15.40
2022-10-24T01:59:48.419Z,15.40
2022-10-24T02:02:23.825Z,15.40
2022-10-24T02:04:58.172Z,15.30
2022-10-24T02:07:26.578Z,15.20
2022-10-24T02:10:01.168Z,15.20
2022-10-24T02:12:31.240Z,15.10
2022-10-24T02:15:12.753Z,15.10
2022-10-24T02:17:39.470Z,15.10
2022-10-24T02:20:07.522Z,15.00
2022-10-24T02:22:47.284Z,15.00
2022-10-24T02:25:26.964Z,14.90
2022-10-24T02:28:04.708Z,14.90
2022-10-24T02:30:37.345Z,14.90
2022-10-24T02:33:04.137Z,14.90
2022-10-24T02:35:36.934Z,14.80
2022-10-24T02:38:10.976Z,14.70
2022-10-24T02:40:39.175Z,14.80
2022-10-24T02:43:06.402Z,14.70
2022-10-24T02:45:38.257Z,14.70
2022-10-24T02:48:10.070Z,14.60
2022-10-24T02:50:40.024Z,14.60
2022-10-24T02:53:09.887Z,14.60
2022-10-24T02:55:36.718Z,14.60
2022-10-24T02:58:03.430Z,14.60
2022-10-24T03:00:30.346Z,14.50
2022-10-24T03:02:59.291Z,14.50
2022-10-24T03:05:26.051Z,14.60
2022-10-24T03:07:54.939Z,14.50
2022-10-24T03:10:22.288Z,14.40
2022-10-24T03:12:48.931Z,14.40
2022-10-24T03:15:15.629Z,14.40
2022-10-24T03:17:44.854Z,14.40
2022-10-24T03:20:11.703Z,14.40
2022-10-24T03:22:38.383Z,14.40
2022-10-24T03:25:07.440Z,14.30
2022-10-24T03:27:34.717Z,14.30
2022-10-24T03:30:01.852Z,14.30
2022-10-24T03:32:28.852Z,14.30
2022-10-24T03:34:55.873Z,14.20
2022-10-24T03:37:22.792Z,14.20
2022-10-24T03:39:49.426Z,14.20
2022-10-24T03:42:16.115Z,14.10
2022-10-24T03:44:42.856Z,14.10
2022-10-24T03:47:09.816Z,14.10
2022-10-24T03:49:36.471Z,14.10
2022-10-24T03:52:03.810Z,14.10
2022-10-24T03:54:30.846Z,14.10
2022-10-24T03:56:57.532Z,14.10
2022-10-24T03:59:24.259Z,14.10
2022-10-24T04:01:53.552Z,14.10
2022-10-24T04:04:20.227Z,14.00
2022-10-24T04:06:46.838Z,14.10
2022-10-24T04:09:13.573Z,14.00
2022-10-24T04:11:40.206Z,14.00
2022-10-24T04:14:09.585Z,13.90
2022-10-24T04:16:36.372Z,13.90
2022-10-24T04:19:03.256Z,14.00
2022-10-24T04:21:30.008Z,13.90
2022-10-24T04:23:57.014Z,14.00
2022-10-24T04:26:24.436Z,13.90
2022-10-24T04:28:53.234Z,13.90
2022-10-24T04:31:22.648Z,13.90
2022-10-24T04:33:50.410Z,13.90
2022-10-24T04:36:21.039Z,14.00
2022-10-24T04:38:47.710Z,13.90
2022-10-24T04:41:14.510Z,14.00
2022-10-24T04:43:41.201Z,13.90
2022-10-24T04:46:10.292Z,13.90
2022-10-24T04:48:36.912Z,13.80
2022-10-24T04:51:04.167Z,13.80
2022-10-24T04:53:30.829Z,13.80
2022-10-24T04:56:00.006Z,13.80
2022-10-24T04:58:26.678Z,13.80
2022-10-24T05:00:55.623Z,13.70
2022-10-24T05:03:23.200Z,13.70
2022-10-24T05:05:50.055Z,13.70
2022-10-24T05:08:17.535Z,13.70
2022-10-24T05:10:46.796Z,13.70
2022-10-24T05:13:17.881Z,13.80
2022-10-24T05:15:44.685Z,13.90
2022-10-24T05:18:11.590Z,13.90
2022-10-24T05:23:12.480Z,14.20
2022-10-24T05:25:39.267Z,14.40
2022-10-24T05:28:05.982Z,14.60
2022-10-24T05:30:32.665Z,14.90
2022-10-24T05:32:59.681Z,15.50
2022-10-24T05:35:26.407Z,16.10
2022-10-24T05:37:53.077Z,16.60
2022-10-24T05:40:22.468Z,17.00
2022-10-24T05:42:49.826Z,17.20
2022-10-24T05:45:16.498Z,17.30
2022-10-24T05:47:46.300Z,17.50
2022-10-24T05:50:13.482Z,17.50
2022-10-24T05:52:46.168Z,17.50
2022-10-24T05:55:16.934Z,17.50
2022-10-24T05:57:45.208Z,17.40
2022-10-24T06:00:14.563Z,17.40
2022-10-24T06:02:41.997Z,17.40
2022-10-24T06:05:10.092Z,17.30
2022-10-24T06:07:37.339Z,17.20
2022-10-24T06:10:05.611Z,17.20
2022-10-24T06:12:33.008Z,17.00
2022-10-24T06:15:00.457Z,16.90
2022-10-24T06:17:27.335Z,16.80
2022-10-24T06:19:54.240Z,16.70
2022-10-24T06:22:24.679Z,16.70
2022-10-24T06:24:51.442Z,16.50
2022-10-24T06:27:22.898Z,16.40
2022-10-24T06:29:49.535Z,16.40
2022-10-24T06:32:16.202Z,16.30
2022-10-24T06:34:42.838Z,16.30
2022-10-24T06:37:09.628Z,16.20
2022-10-24T06:39:36.241Z,16.20
2022-10-24T06:42:02.939Z,16.20
2022-10-24T06:44:29.552Z,16.20
2022-10-24T06:46:56.277Z,16.20
2022-10-24T06:49:23.005Z,16.20
2022-10-24T06:51:49.640Z,16.10
2022-10-24T06:54:16.939Z,16.10
2022-10-24T06:56:43.632Z,16.10
2022-10-24T06:59:13.733Z,16.10
2022-10-24T07:01:40.536Z,16.10
2022-10-24T07:04:07.742Z,16.10
2022-10-24T07:06:37.221Z,16.10
2022-10-24T07:09:06.235Z,16.10
2022-10-24T07:11:34.266Z,16.10
2022-10-24T07:14:02.616Z,16.10
2022-10-24T07:16:31.143Z,16.10
2022-10-24T07:18:58.148Z,16.10
2022-10-24T07:21:27.600Z,16.10
2022-10-24T07:23:57.743Z,16.10
2022-10-24T07:26:27.317Z,16.10
2022-10-24T07:31:35.071Z,16.10
2022-10-24T07:34:06.734Z,16.10
2022-10-24T07:36:33.446Z,16.10
2022-10-24T07:39:00.559Z,16.10
2022-10-24T07:41:29.760Z,16.20
2022-10-24T07:43:58.281Z,16.20
2022-10-24T07:46:26.167Z,16.20
2022-10-24T07:48:53.603Z,16.20
2022-10-24T07:51:22.997Z,16.20
2022-10-24T07:53:50.250Z,16.20
2022-10-24T07:56:17.615Z,16.30
2022-10-24T07:58:45.977Z,16.30
2022-10-24T08:01:23.444Z,16.30
2022-10-24T08:03:52.919Z,16.40
2022-10-24T08:06:22.278Z,16.40
2022-10-24T08:08:49.302Z,16.40
2022-10-24T08:11:22.328Z,16.40
2022-10-24T08:13:50.636Z,16.40
2022-10-24T08:16:20.818Z,16.40
2022-10-24T08:18:48.672Z,16.50
2022-10-24T08:21:19.901Z,16.50
2022-10-24T08:23:48.190Z,16.50
2022-10-24T08:26:17.982Z,16.50
2022-10-24T08:28:46.789Z,16.50
2022-10-24T08:31:19.859Z,16.50
2022-10-24T08:33:47.702Z,16.50
2022-10-24T08:36:25.378Z,16.60
2022-10-24T08:38:52.085Z,16.60
2022-10-24T08:41:24.586Z,16.60
2022-10-24T08:43:53.133Z,16.70
2022-10-24T08:46:52.545Z,16.70
2022-10-24T08:49:30.979Z,16.80
2022-10-24T08:52:01.732Z,16.90
2022-10-24T08:54:36.824Z,17.00
2022-10-24T08:57:06.017Z,17.10
2022-10-24T08:59:35.900Z,17.30
2022-10-24T09:02:13.528Z,17.50
2022-10-24T09:04:49.176Z,17.70
2022-10-24T09:07:21.569Z,17.70
2022-10-24T09:09:51.516Z,17.80
2022-10-24T09:12:21.019Z,17.80
2022-10-24T09:14:59.871Z,18.00
2022-10-24T09:17:32.847Z,18.00
2022-10-24T09:20:19.569Z,18.10
2022-10-24T09:22:46.691Z,18.20
2022-10-24T09:25:17.275Z,18.40
2022-10-24T09:27:44.799Z,18.40
2022-10-24T09:30:21.235Z,18.30
2022-10-24T09:32:48.500Z,18.30
2022-10-24T09:35:26.822Z,18.30
2022-10-24T09:37:58.869Z,18.30
2022-10-24T09:40:34.925Z,18.30
2022-10-24T09:43:26.204Z,18.30
2022-10-24T09:46:05.925Z,18.30
2022-10-24T09:48:56.540Z,18.30
2022-10-24T09:51:34.071Z,18.50
2022-10-24T09:54:25.520Z,18.70
2022-10-24T09:56:56.676Z,18.90
2022-10-24T09:59:42.509Z,19.00
2022-10-24T10:02:21.262Z,19.00
2022-10-24T10:04:50.153Z,18.80
2022-10-24T10:07:27.257Z,18.70
2022-10-24T10:09:57.208Z,18.90
2022-10-24T10:12:34.597Z,18.90
2022-10-24T10:15:23.023Z,19.00
2022-10-24T10:17:52.863Z,18.90
2022-10-24T10:20:44.071Z,19.00
2022-10-24T10:23:21.244Z,19.10
2022-10-24T10:25:47.897Z,19.20
2022-10-24T10:28:23.602Z,19.00
2022-10-24T10:30:55.957Z,19.10
2022-10-24T10:36:17.889Z,19.50
2022-10-24T10:38:53.493Z,19.70
2022-10-24T10:41:34.404Z,19.90
2022-10-24T10:44:25.769Z,20.10
2022-10-24T10:47:01.935Z,20.10
2022-10-24T10:49:32.275Z,20.10
2022-10-24T10:52:06.010Z,19.70
2022-10-24T10:54:50.508Z,19.60
2022-10-24T10:57:26.549Z,19.90
2022-10-24T11:00:19.811Z,20.40
2022-10-24T11:03:13.856Z,20.90
2022-10-24T11:06:05.493Z,21.20
2022-10-24T11:08:56.154Z,21.10
2022-10-24T11:11:29.029Z,21.20
2022-10-24T11:14:16.506Z,21.40
2022-10-24T11:16:44.376Z,21.80
2022-10-24T11:19:40.007Z,22.00
2022-10-24T11:22:09.717Z,22.00
2022-10-24T11:24:46.651Z,22.20
2022-10-24T11:27:22.356Z,22.30
2022-10-24T11:30:16.748Z,22.00
2022-10-24T11:33:02.061Z,22.10
2022-10-24T11:35:30.149Z,22.20
2022-10-24T11:38:08.821Z,22.40
2022-10-24T11:40:40.103Z,22.40
2022-10-24T11:43:27.731Z,22.60
2022-10-24T11:46:15.175Z,22.70
2022-10-24T11:49:00.532Z,23.00
2022-10-24T11:51:39.324Z,23.30
2022-10-24T11:54:17.138Z,23.40
2022-10-24T11:56:49.864Z,23.50
2022-10-24T11:59:25.506Z,23.50
2022-10-24T12:01:55.182Z,23.50
2022-10-24T12:04:24.799Z,23.30
2022-10-24T12:07:17.320Z,22.80
2022-10-24T12:09:58.858Z,22.40
2022-10-24T12:12:48.089Z,22.10
2022-10-24T12:15:39.112Z,22.00
2022-10-24T12:18:24.897Z,22.20
2022-10-24T12:20:55.583Z,22.80
2022-10-24T12:23:25.323Z,23.50
2022-10-24T12:26:25.824Z,24.00
2022-10-24T12:28:58.806Z,23.90
2022-10-24T12:31:33.885Z,23.20
2022-10-24T12:34:19.207Z,22.70
2022-10-24T12:37:09.484Z,22.10
2022-10-24T12:39:39.238Z,21.60
2022-10-24T12:42:16.047Z,21.30
2022-10-24T12:44:43.767Z,21.20
2022-10-24T12:47:34.206Z,21.00
2022-10-24T12:50:24.391Z,21.00
2022-10-24T12:53:03.828Z,21.40
2022-10-24T12:55:39.927Z,22.20
2022-10-24T12:58:30.658Z,22.90
2022-10-24T13:00:58.327Z,22.80
2022-10-24T13:03:53.417Z,23.00
2022-10-24T13:06:28.284Z,23.10
2022-10-24T13:09:07.210Z,23.00
2022-10-24T13:12:01.041Z,22.80
2022-10-24T13:14:45.782Z,22.40
2022-10-24T13:17:35.995Z,22.30
2022-10-24T13:20:09.708Z,22.20
2022-10-24T13:22:37.249Z,21.90
2022-10-24T13:25:33.708Z,22.00
2022-10-24T13:28:22.444Z,22.30
2022-10-24T13:30:59.204Z,22.50
2022-10-24T13:33:37.819Z,22.50
2022-10-24T13:36:16.147Z,22.70
2022-10-24T13:38:48.834Z,22.60
2022-10-24T13:41:28.471Z,22.40
2022-10-24T13:44:02.375Z,22.00
2022-10-24T13:46:54.423Z,21.70
2022-10-24T13:49:39.439Z,21.30
2022-10-24T13:52:33.110Z,21.00
2022-10-24T13:55:16.146Z,20.80
2022-10-24T13:58:06.907Z,20.60
2022-10-24T14:00:37.651Z,20.30
2022-10-24T14:03:16.924Z,20.30
2022-10-24T14:05:48.529Z,20.20
2022-10-24T14:08:31.595Z,20.10
2022-10-24T14:11:04.105Z,20.10
2022-10-24T14:13:33.699Z,20.10
2022-10-24T14:16:03.552Z,20.10
2022-10-24T14:18:31.346Z,20.00
2022-10-24T14:21:02.809Z,20.00
2022-10-24T14:23:39.026Z,19.90
2022-10-24T14:26:13.003Z,19.90
2022-10-24T14:28:55.791Z,19.80
2022-10-24T14:31:35.058Z,19.80
2022-10-24T14:34:05.876Z,19.70
2022-10-24T14:36:38.139Z,19.80
2022-10-24T14:39:05.513Z,20.00
2022-10-24T14:41:42.770Z,20.20
2022-10-24T14:44:14.949Z,20.40
2022-10-24T14:46:44.306Z,20.40
2022-10-24T14:49:29.697Z,20.30
2022-10-24T14:52:19.346Z,20.10
2022-10-24T14:55:01.079Z,19.90
2022-10-24T14:57:28.754Z,19.70
2022-10-24T14:59:57.498Z,19.70
2022-10-24T15:02:30.494Z,19.60
2022-10-24T15:05:29.803Z,19.50
2022-10-24T15:08:23.178Z,19.50
2022-10-24T15:11:02.253Z,19.40
2022-10-24T15:13:33.317Z,19.30
2022-10-24T15:16:01.343Z,19.30
2022-10-24T15:18:29.434Z,19.30
2022-10-24T15:21:12.702Z,19.20
2022-10-24T15:23:54.780Z,19.20
2022-10-24T15:26:32.601Z,19.20
2022-10-24T15:29:02.129Z,19.10
2022-10-24T15:31:30.520Z,19.00
2022-10-24T15:33:57.242Z,18.90
2022-10-24T15:36:32.736Z,18.90
2022-10-24T15:39:13.028Z,18.80
2022-10-24T15:41:40.315Z,18.70
2022-10-24T15:44:18.565Z,18.60
2022-10-24T15:46:45.941Z,18.50
2022-10-24T15:49:12.783Z,18.50
2022-10-24T15:51:44.590Z,18.40
2022-10-24T15:54:17.336Z,18.30
2022-10-24T15:56:46.544Z,18.30
2022-10-24T15:59:13.294Z,18.30
2022-10-24T16:01:47.464Z,18.30
2022-10-24T16:04:15.011Z,18.30
2022-10-24T16:06:41.768Z,18.20
2022-10-24T16:09:17.233Z,18.20
2022-10-24T16:11:43.974Z,18.20
2022-10-24T16:14:14.883Z,18.20
2022-10-24T16:16:41.724Z,18.10
2022-10-24T16:19:09.617Z,18.10
2022-10-24T16:21:37.271Z,18.00
2022-10-24T16:24:04.450Z,18.00
2022-10-24T16:26:33.529Z,18.00
2022-10-24T16:29:00.335Z,17.90
2022-10-24T16:31:26.987Z,17.90
2022-10-24T16:33:53.722Z,17.90
2022-10-24T16:36:22.378Z,17.90
2022-10-24T16:38:51.667Z,17.80
2022-10-24T16:41:22.292Z,17.80
2022-10-24T16:43:50.308Z,17.70
2022-10-24T16:46:19.881Z,17.70
2022-10-24T16:48:47.287Z,17.70
2022-10-24T16:51:20.232Z,17.70
2022-10-24T16:53:47.145Z,17.60
2022-10-24T16:56:15.530Z,17.60
2022-10-24T16:58:42.647Z,17.60
2022-10-24T17:01:12.422Z,17.50
2022-10-24T17:03:39.807Z,17.50
2022-10-24T17:06:06.949Z,17.40
2022-10-24T17:08:33.841Z,17.40
2022-10-24T17:11:00.883Z,17.40
2022-10-24T17:13:28.770Z,17.30
2022-10-24T17:15:56.303Z,17.20
2022-10-24T17:18:25.275Z,17.20
2022-10-24T17:20:58.249Z,17.20
2022-10-24T17:23:25.871Z,17.10
2022-10-24T17:25:52.809Z,17.10
2022-10-24T17:28:19.747Z,17.00
2022-10-24T17:30:46.887Z,17.00
2022-10-24T17:33:13.926Z,16.90
2022-10-24T17:35:47.275Z,16.80
2022-10-24T17:38:27.682Z,16.70
2022-10-24T17:41:02.925Z,16.70
2022-10-24T17:43:29.759Z,16.60
2022-10-24T17:45:59.676Z,16.60
2022-10-24T17:48:26.424Z,16.50
2022-10-24T17:50:56.161Z,16.50
2022-10-24T17:53:25.008Z,16.40
2022-10-24T17:55:53.950Z,16.40
2022-10-24T17:58:20.719Z,16.40
2022-10-24T18:00:51.903Z,16.30
2022-10-24T18:03:21.018Z,16.20
2022-10-24T18:05:48.211Z,16.20
2022-10-24T18:08:17.462Z,16.10
2022-10-24T18:10:44.182Z,16.00
2022-10-24T18:13:10.854Z,15.90
2022-10-24T18:15:38.142Z,15.90
2022-10-24T18:18:05.600Z,15.70
2022-10-24T18:20:32.822Z,15.70
2022-10-24T18:23:00.446Z,15.60
2022-10-24T18:25:30.144Z,15.50
2022-10-24T18:27:56.978Z,15.50
2022-10-24T18:30:24.134Z,15.40
2022-10-24T18:32:51.175Z,15.30
2022-10-24T18:35:18.342Z,15.30
2022-10-24T18:37:45.343Z,15.20
2022-10-24T18:40:12.975Z,15.10
2022-10-24T18:42:54.690Z,15.00
2022-10-24T18:45:24.656Z,15.00
2022-10-24T18:47:54.402Z,14.90
2022-10-24T18:50:32.352Z,14.90
2022-10-24T18:53:09.823Z,14.80
2022-10-24T18:55:36.959Z,14.70
2022-10-24T18:58:04.085Z,14.60
2022-10-24T19:00:37.947Z,14.40
2022-10-24T19:03:22.677Z,14.40
2022-10-24T19:06:16.349Z,14.30
2022-10-24T19:08:43.401Z,14.30
2022-10-24T19:11:14.139Z,14.20
2022-10-24T19:13:41.813Z,14.10
2022-10-24T19:16:15.485Z,14.10
2022-10-24T19:18:48.923Z,14.10
2022-10-24T19:21:18.127Z,14.00
2022-10-24T19:23:47.231Z,14.00
2022-10-24T19:26:16.245Z,14.00
2022-10-24T19:28:43.042Z,13.90
2022-10-24T19:31:14.797Z,13.90
2022-10-24T19:33:41.529Z,13.90
2022-10-24T19:36:09.723Z,13.90
2022-10-24T19:38:38.910Z,13.80
2022-10-24T19:41:11.015Z,13.80
2022-10-24T19:43:38.381Z,13.80
2022-10-24T19:46:18.750Z,13.70
2022-10-24T19:48:53.067Z,13.70
2022-10-24T19:51:20.435Z,13.60
2022-10-24T19:53:49.575Z,13.60
2022-10-24T19:56:25.206Z,13.60
2022-10-24T19:58:53.561Z,13.50
2022-10-24T20:01:23.638Z,13.50
2022-10-24T20:03:51.057Z,13.50
2022-10-24T20:06:19.232Z,13.50
2022-10-24T20:08:49.266Z,13.40
2022-10-24T20:11:20.531Z,13.50
2022-10-24T20:13:48.375Z,13.40
2022-10-24T20:16:15.027Z,13.40
2022-10-24T20:18:45.526Z,13.40
2022-10-24T20:21:14.697Z,13.40
2022-10-24T20:23:43.761Z,13.40
2022-10-24T20:26:16.534Z,13.40
2022-10-24T20:28:45.814Z,13.40
2022-10-24T20:31:45.848Z,13.40
2022-10-24T20:34:13.405Z,13.50
2022-10-24T20:36:44.494Z,13.40
2022-10-24T20:39:12.086Z,13.30
2022-10-24T20:41:39.008Z,13.30
2022-10-24T20:44:06.914Z,13.30
2022-10-24T20:46:36.430Z,13.20
2022-10-24T20:49:06.490Z,13.20
2022-10-24T20:51:33.272Z,13.20
2022-10-24T20:54:00.003Z,13.20
2022-10-24T20:56:26.819Z,13.20
2022-10-24T20:58:55.097Z,13.10
2022-10-24T21:01:27.661Z,13.10
2022-10-24T21:03:55.720Z,13.10
2022-10-24T21:06:27.967Z,13.10
2022-10-24T21:08:57.546Z,13.10
2022-10-24T21:11:27.891Z,13.00
2022-10-24T21:14:06.689Z,13.00
2022-10-24T21:16:34.357Z,13.00
2022-10-24T21:19:01.565Z,12.90
2022-10-24T21:21:28.665Z,12.90
2022-10-24T21:24:02.240Z,12.90
2022-10-24T21:26:34.664Z,12.90
2022-10-24T21:29:14.574Z,12.90
2022-10-24T21:31:51.567Z,12.90
2022-10-24T21:34:19.081Z,12.90
2022-10-24T21:36:45.862Z,12.90
2022-10-24T21:39:14.429Z,12.80
2022-10-24T21:41:41.175Z,12.80
2022-10-24T21:44:08.042Z,12.80
2022-10-24T21:46:37.997Z,12.80
2022-10-24T21:49:04.673Z,12.80
2022-10-24T21:51:34.505Z,12.70
2022-10-24T21:54:04.130Z,12.70
2022-10-24T21:56:36.693Z,12.70
2022-10-24T21:59:06.348Z,12.60
2022-10-24T22:01:35.497Z,12.60
2022-10-24T22:04:03.289Z,12.60
2022-10-24T22:06:31.385Z,12.60
2022-10-24T22:09:00.637Z,12.60
2022-10-24T22:11:32.264Z,12.60
2022-10-24T22:13:59.285Z,12.60
2022-10-24T22:16:28.137Z,12.60
2022-10-24T22:18:55.225Z,12.70
2022-10-24T22:21:26.105Z,12.60
2022-10-24T22:23:55.124Z,12.70
2022-10-24T22:26:21.876Z,12.70
2022-10-24T22:28:49.194Z,12.70
2022-10-24T22:31:18.766Z,12.70
2022-10-24T22:33:45.531Z,12.70
2022-10-24T22:36:26.108Z,12.70
2022-10-24T22:38:55.508Z,12.70
2022-10-24T22:41:23.242Z,12.70
2022-10-24T22:43:50.296Z,12.70
2022-10-24T22:46:31.784Z,12.80
2022-10-24T22:49:09.299Z,12.80
2022-10-24T22:51:36.260Z,12.80
2022-10-24T22:54:06.236Z,12.90
2022-10-24T22:56:35.253Z,12.90
2022-10-24T22:59:02.177Z,13.00
2022-10-24T23:01:36.112Z,13.00
2022-10-24T23:04:24.115Z,13.00
2022-10-24T23:07:02.750Z,13.10
2022-10-24T23:09:29.328Z,13.10
2022-10-24T23:11:56.249Z,13.00
2022-10-24T23:14:23.216Z,13.00
2022-10-24T23:16:55.712Z,13.00
2022-10-24T23:19:32.597Z,13.00
2022-10-24T23:22:21.724Z,13.00
2022-10-24T23:24:49.994Z,13.00
2022-10-24T23:27:19.196Z,12.90
2022-10-24T23:29:46.712Z,12.90
2022-10-24T23:32:22.427Z,12.90
2022-10-24T23:34:50.183Z,12.90
2022-10-24T23:37:38.361Z,12.80
2022-10-24T23:40:17.180Z,12.80
2022-10-24T23:42:45.783Z,12.70
2022-10-24T23:45:23.843Z,12.70
2022-10-24T23:48:11.252Z,12.60
2022-10-24T23:50:59.163Z,12.60
2022-10-24T23:53:40.748Z,12.60
2022-10-24T23:56:11.989Z,12.60
2022-10-24T23:58:38.615Z,12.60
